sensor_id;sensor_type;location;lat;lon;timestamp;P1;durP1;ratioP1;P2;durP2;ratioP2
17965;SDS011;9108;53.204;10.424;2023-08-21T00:02:16;9.90;;;4.90;;
17965;SDS011;9108;53.204;10.424;2023-08-21T00:04:43;12.00;;;4.82;;
17965;SDS011;9108;53.204;10.424;2023-08-21T00:07:10;10.77;;;5.15;;
17965;SDS011;9108;53.204;10.424;2023-08-21T00:09:37;10.67;;;4.90;;
17965;SDS011;9108;53.204;10.424;2023-08-21T00:12:06;9.77;;;4.82;;
17965;SDS011;9108;53.204;10.424;2023-08-21T00:14:34;9.93;;;4.90;;
17965;SDS011;9108;53.204;10.424;2023-08-21T00:17:01;10.88;;;5.13;;
17965;SDS011;9108;53.204;10.424;2023-08-21T00:19:29;10.43;;;5.25;;
17965;SDS011;9108;53.204;10.424;2023-08-21T00:21:56;11.73;;;5.70;;
17965;SDS011;9108;53.204;10.424;2023-08-21T00:24:23;10.75;;;5.28;;
17965;SDS011;9108;53.204;10.424;2023-08-21T00:26:50;13.57;;;5.88;;
17965;SDS011;9108;53.204;10.424;2023-08-21T00:29:18;10.00;;;5.00;;
17965;SDS011;9108;53.204;10.424;2023-08-21T00:31:46;10.02;;;4.57;;
17965;SDS011;9108;53.204;10.424;2023-08-21T00:34:13;10.85;;;5.10;;
17965;SDS011;9108;53.204;10.424;2023-08-21T00:36:40;9.52;;;4.70;;
17965;SDS011;9108;53.204;10.424;2023-08-21T00:39:08;7.90;;;4.45;;
17965;SDS011;9108;53.204;10.424;2023-08-21T00:41:35;9.23;;;5.25;;
17965;SDS011;9108;53.204;10.424;2023-08-21T00:44:02;10.88;;;4.78;;
17965;SDS011;9108;53.204;10.424;2023-08-21T00:46:30;11.85;;;5.15;;
17965;SDS011;9108;53.204;10.424;2023-08-21T00:48:58;8.63;;;4.72;;
17965;SDS011;9108;53.204;10.424;2023-08-21T00:51:25;8.50;;;4.68;;
17965;SDS011;9108;53.204;10.424;2023-08-21T00:53:53;11.23;;;5.53;;
17965;SDS011;9108;53.204;10.424;2023-08-21T00:56:20;12.73;;;5.20;;
17965;SDS011;9108;53.204;10.424;2023-08-21T00:58:47;10.13;;;5.30;;
17965;SDS011;9108;53.204;10.424;2023-08-21T01:01:14;10.38;;;4.97;;
17965;SDS011;9108;53.204;10.424;2023-08-21T01:03:42;11.52;;;5.40;;
17965;SDS011;9108;53.204;10.424;2023-08-21T01:06:11;8.63;;;5.40;;
17965;SDS011;9108;53.204;10.424;2023-08-21T01:08:40;10.75;;;5.18;;
17965;SDS011;9108;53.204;10.424;2023-08-21T01:11:11;9.13;;;4.78;;
17965;SDS011;9108;53.204;10.424;2023-08-21T01:13:44;8.93;;;5.13;;
17965;SDS011;9108;53.204;10.424;2023-08-21T01:16:13;8.27;;;5.15;;
17965;SDS011;9108;53.204;10.424;2023-08-21T01:18:40;8.50;;;4.75;;
17965;SDS011;9108;53.204;10.424;2023-08-21T01:21:12;8.00;;;4.93;;
17965;SDS011;9108;53.204;10.424;2023-08-21T01:23:40;10.57;;;5.03;;
17965;SDS011;9108;53.204;10.424;2023-08-21T01:26:08;11.55;;;5.15;;
17965;SDS011;9108;53.204;10.424;2023-08-21T01:28:35;12.30;;;5.30;;
17965;SDS011;9108;53.204;10.424;2023-08-21T01:31:05;11.95;;;5.68;;
17965;SDS011;9108;53.204;10.424;2023-08-21T01:33:35;11.00;;;5.80;;
17965;SDS011;9108;53.204;10.424;2023-08-21T01:36:04;8.18;;;5.40;;
17965;SDS011;9108;53.204;10.424;2023-08-21T01:38:32;8.43;;;5.03;;
17965;SDS011;9108;53.204;10.424;2023-08-21T01:41:01;8.52;;;5.00;;
17965;SDS011;9108;53.204;10.424;2023-08-21T01:43:28;8.10;;;4.80;;
17965;SDS011;9108;53.204;10.424;2023-08-21T01:45:55;8.95;;;5.25;;
17965;SDS011;9108;53.204;10.424;2023-08-21T01:48:23;9.30;;;5.20;;
17965;SDS011;9108;53.204;10.424;2023-08-21T01:50:50;9.93;;;5.53;;
17965;SDS011;9108;53.204;10.424;2023-08-21T01:53:17;11.68;;;5.95;;
17965;SDS011;9108;53.204;10.424;2023-08-21T01:55:44;12.10;;;5.57;;
17965;SDS011;9108;53.204;10.424;2023-08-21T01:58:13;8.10;;;4.97;;
17965;SDS011;9108;53.204;10.424;2023-08-21T02:00:40;10.00;;;5.18;;
17965;SDS011;9108;53.204;10.424;2023-08-21T02:03:07;10.10;;;5.22;;
17965;SDS011;9108;53.204;10.424;2023-08-21T02:05:37;8.93;;;4.43;;
17965;SDS011;9108;53.204;10.424;2023-08-21T02:08:05;6.27;;;3.80;;
17965;SDS011;9108;53.204;10.424;2023-08-21T02:10:33;7.18;;;3.83;;
17965;SDS011;9108;53.204;10.424;2023-08-21T02:13:00;8.52;;;3.75;;
17965;SDS011;9108;53.204;10.424;2023-08-21T02:15:28;5.93;;;3.88;;
17965;SDS011;9108;53.204;10.424;2023-08-21T02:17:55;6.20;;;3.92;;
17965;SDS011;9108;53.204;10.424;2023-08-21T02:20:22;7.95;;;4.15;;
17965;SDS011;9108;53.204;10.424;2023-08-21T02:22:50;8.03;;;4.30;;
17965;SDS011;9108;53.204;10.424;2023-08-21T02:25:17;10.73;;;5.50;;
17965;SDS011;9108;53.204;10.424;2023-08-21T02:27:44;12.30;;;5.32;;
17965;SDS011;9108;53.204;10.424;2023-08-21T02:30:11;9.25;;;4.72;;
17965;SDS011;9108;53.204;10.424;2023-08-21T02:32:40;7.95;;;4.47;;
17965;SDS011;9108;53.204;10.424;2023-08-21T02:35:07;7.20;;;4.30;;
17965;SDS011;9108;53.204;10.424;2023-08-21T02:37:34;9.20;;;5.00;;
17965;SDS011;9108;53.204;10.424;2023-08-21T02:40:04;7.25;;;4.75;;
17965;SDS011;9108;53.204;10.424;2023-08-21T02:42:33;7.00;;;4.20;;
17965;SDS011;9108;53.204;10.424;2023-08-21T02:45:00;7.53;;;4.22;;
17965;SDS011;9108;53.204;10.424;2023-08-21T02:47:32;7.10;;;4.10;;
17965;SDS011;9108;53.204;10.424;2023-08-21T02:50:01;7.20;;;4.10;;
17965;SDS011;9108;53.204;10.424;2023-08-21T02:52:28;8.02;;;4.20;;
17965;SDS011;9108;53.204;10.424;2023-08-21T02:54:55;8.73;;;4.45;;
17965;SDS011;9108;53.204;10.424;2023-08-21T02:57:23;7.75;;;4.40;;
17965;SDS011;9108;53.204;10.424;2023-08-21T02:59:50;4.03;;;3.50;;
17965;SDS011;9108;53.204;10.424;2023-08-21T03:02:17;5.65;;;3.58;;
17965;SDS011;9108;53.204;10.424;2023-08-21T03:04:44;6.50;;;4.05;;
17965;SDS011;9108;53.204;10.424;2023-08-21T03:07:13;6.18;;;4.45;;
17965;SDS011;9108;53.204;10.424;2023-08-21T03:09:40;4.72;;;3.28;;
17965;SDS011;9108;53.204;10.424;2023-08-21T03:12:08;7.88;;;4.35;;
17965;SDS011;9108;53.204;10.424;2023-08-21T03:14:35;8.55;;;3.90;;
17965;SDS011;9108;53.204;10.424;2023-08-21T03:17:02;6.32;;;4.20;;
17965;SDS011;9108;53.204;10.424;2023-08-21T03:19:29;7.70;;;4.20;;
17965;SDS011;9108;53.204;10.424;2023-08-21T03:21:56;9.80;;;4.40;;
17965;SDS011;9108;53.204;10.424;2023-08-21T03:24:25;9.73;;;4.30;;
17965;SDS011;9108;53.204;10.424;2023-08-21T03:26:52;9.15;;;4.72;;
17965;SDS011;9108;53.204;10.424;2023-08-21T03:29:19;8.35;;;4.68;;
17965;SDS011;9108;53.204;10.424;2023-08-21T03:31:47;8.90;;;4.60;;
17965;SDS011;9108;53.204;10.424;2023-08-21T03:34:14;10.10;;;5.00;;
17965;SDS011;9108;53.204;10.424;2023-08-21T03:36:42;11.18;;;5.25;;
17965;SDS011;9108;53.204;10.424;2023-08-21T03:39:09;8.90;;;4.70;;
17965;SDS011;9108;53.204;10.424;2023-08-21T03:41:37;11.80;;;5.20;;
17965;SDS011;9108;53.204;10.424;2023-08-21T03:44:04;8.73;;;5.15;;
17965;SDS011;9108;53.204;10.424;2023-08-21T03:46:32;8.87;;;5.17;;
17965;SDS011;9108;53.204;10.424;2023-08-21T03:48:59;11.30;;;5.30;;
17965;SDS011;9108;53.204;10.424;2023-08-21T03:51:26;9.40;;;5.05;;
17965;SDS011;9108;53.204;10.424;2023-08-21T03:53:53;11.80;;;5.05;;
17965;SDS011;9108;53.204;10.424;2023-08-21T03:56:20;9.33;;;4.80;;
17965;SDS011;9108;53.204;10.424;2023-08-21T03:58:49;10.07;;;4.75;;
17965;SDS011;9108;53.204;10.424;2023-08-21T04:01:17;11.38;;;5.20;;
17965;SDS011;9108;53.204;10.424;2023-08-21T04:03:44;11.07;;;4.88;;
17965;SDS011;9108;53.204;10.424;2023-08-21T04:06:11;9.55;;;4.82;;
17965;SDS011;9108;53.204;10.424;2023-08-21T04:08:38;8.13;;;4.53;;
17965;SDS011;9108;53.204;10.424;2023-08-21T04:11:05;8.80;;;4.53;;
17965;SDS011;9108;53.204;10.424;2023-08-21T04:13:33;10.87;;;5.10;;
17965;SDS011;9108;53.204;10.424;2023-08-21T04:16:01;10.43;;;5.15;;
17965;SDS011;9108;53.204;10.424;2023-08-21T04:18:28;8.55;;;4.20;;
17965;SDS011;9108;53.204;10.424;2023-08-21T04:20:55;7.60;;;4.28;;
17965;SDS011;9108;53.204;10.424;2023-08-21T04:23:23;7.83;;;4.17;;
17965;SDS011;9108;53.204;10.424;2023-08-21T04:25:50;9.52;;;4.57;;
17965;SDS011;9108;53.204;10.424;2023-08-21T04:28:17;8.13;;;4.00;;
17965;SDS011;9108;53.204;10.424;2023-08-21T04:30:44;9.73;;;3.92;;
17965;SDS011;9108;53.204;10.424;2023-08-21T04:33:12;6.07;;;3.80;;
17965;SDS011;9108;53.204;10.424;2023-08-21T04:35:39;6.82;;;3.65;;
17965;SDS011;9108;53.204;10.424;2023-08-21T04:38:07;6.97;;;3.90;;
17965;SDS011;9108;53.204;10.424;2023-08-21T04:40:34;9.13;;;4.10;;
17965;SDS011;9108;53.204;10.424;2023-08-21T04:43:01;6.35;;;4.07;;
17965;SDS011;9108;53.204;10.424;2023-08-21T04:45:28;7.80;;;4.20;;
17965;SDS011;9108;53.204;10.424;2023-08-21T04:47:55;8.07;;;3.70;;
17965;SDS011;9108;53.204;10.424;2023-08-21T04:50:24;8.68;;;3.90;;
17965;SDS011;9108;53.204;10.424;2023-08-21T04:52:51;7.85;;;3.92;;
17965;SDS011;9108;53.204;10.424;2023-08-21T04:55:18;8.07;;;4.00;;
17965;SDS011;9108;53.204;10.424;2023-08-21T04:57:45;11.32;;;4.93;;
17965;SDS011;9108;53.204;10.424;2023-08-21T05:00:13;8.47;;;4.70;;
17965;SDS011;9108;53.204;10.424;2023-08-21T05:02:41;6.75;;;4.20;;
17965;SDS011;9108;53.204;10.424;2023-08-21T05:05:08;7.93;;;4.22;;
17965;SDS011;9108;53.204;10.424;2023-08-21T05:07:36;8.80;;;4.18;;
17965;SDS011;9108;53.204;10.424;2023-08-21T05:10:04;7.13;;;3.23;;
17965;SDS011;9108;53.204;10.424;2023-08-21T05:12:31;7.88;;;3.45;;
17965;SDS011;9108;53.204;10.424;2023-08-21T05:14:58;6.65;;;2.90;;
17965;SDS011;9108;53.204;10.424;2023-08-21T05:17:25;5.95;;;2.90;;
17965;SDS011;9108;53.204;10.424;2023-08-21T05:19:53;7.85;;;2.90;;
17965;SDS011;9108;53.204;10.424;2023-08-21T05:22:20;7.22;;;3.20;;
17965;SDS011;9108;53.204;10.424;2023-08-21T05:24:49;7.40;;;2.83;;
17965;SDS011;9108;53.204;10.424;2023-08-21T05:27:16;5.22;;;2.65;;
17965;SDS011;9108;53.204;10.424;2023-08-21T05:29:43;5.50;;;2.70;;
17965;SDS011;9108;53.204;10.424;2023-08-21T05:32:10;7.13;;;3.03;;
17965;SDS011;9108;53.204;10.424;2023-08-21T05:34:37;11.55;;;3.65;;
17965;SDS011;9108;53.204;10.424;2023-08-21T05:37:05;9.77;;;3.03;;
17965;SDS011;9108;53.204;10.424;2023-08-21T05:39:32;9.85;;;3.20;;
17965;SDS011;9108;53.204;10.424;2023-08-21T05:42:01;7.38;;;3.10;;
17965;SDS011;9108;53.204;10.424;2023-08-21T05:44:28;9.55;;;3.15;;
17965;SDS011;9108;53.204;10.424;2023-08-21T05:46:55;10.85;;;3.50;;
17965;SDS011;9108;53.204;10.424;2023-08-21T05:49:22;15.82;;;3.53;;
17965;SDS011;9108;53.204;10.424;2023-08-21T05:51:49;8.48;;;3.00;;
17965;SDS011;9108;53.204;10.424;2023-08-21T05:54:16;8.88;;;2.95;;
17965;SDS011;9108;53.204;10.424;2023-08-21T05:56:44;10.40;;;3.10;;
17965;SDS011;9108;53.204;10.424;2023-08-21T05:59:12;10.17;;;3.33;;
17965;SDS011;9108;53.204;10.424;2023-08-21T06:01:52;9.38;;;2.97;;
17965;SDS011;9108;53.204;10.424;2023-08-21T06:04:20;7.93;;;2.55;;
17965;SDS011;9108;53.204;10.424;2023-08-21T06:06:47;7.75;;;2.67;;
17965;SDS011;9108;53.204;10.424;2023-08-21T06:09:14;11.90;;;2.80;;
17965;SDS011;9108;53.204;10.424;2023-08-21T06:11:42;9.70;;;2.58;;
17965;SDS011;9108;53.204;10.424;2023-08-21T06:14:09;9.00;;;2.47;;
17965;SDS011;9108;53.204;10.424;2023-08-21T06:16:38;9.48;;;2.30;;
17965;SDS011;9108;53.204;10.424;2023-08-21T06:19:05;6.25;;;2.15;;
17965;SDS011;9108;53.204;10.424;2023-08-21T06:21:32;7.30;;;2.25;;
17965;SDS011;9108;53.204;10.424;2023-08-21T06:23:59;8.33;;;2.17;;
17965;SDS011;9108;53.204;10.424;2023-08-21T06:26:27;7.53;;;2.20;;
17965;SDS011;9108;53.204;10.424;2023-08-21T06:28:54;6.88;;;2.20;;
17965;SDS011;9108;53.204;10.424;2023-08-21T06:31:21;7.70;;;2.30;;
17965;SDS011;9108;53.204;10.424;2023-08-21T06:33:49;8.48;;;2.25;;
17965;SDS011;9108;53.204;10.424;2023-08-21T06:36:17;6.75;;;1.95;;
17965;SDS011;9108;53.204;10.424;2023-08-21T06:38:44;6.90;;;2.05;;
17965;SDS011;9108;53.204;10.424;2023-08-21T06:41:11;5.38;;;1.80;;
17965;SDS011;9108;53.204;10.424;2023-08-21T06:43:38;8.68;;;1.98;;
17965;SDS011;9108;53.204;10.424;2023-08-21T06:46:06;7.85;;;2.20;;
17965;SDS011;9108;53.204;10.424;2023-08-21T06:48:33;8.45;;;2.30;;
17965;SDS011;9108;53.204;10.424;2023-08-21T06:51:02;9.43;;;2.23;;
17965;SDS011;9108;53.204;10.424;2023-08-21T06:53:29;10.40;;;2.40;;
17965;SDS011;9108;53.204;10.424;2023-08-21T06:55:56;8.18;;;1.90;;
17965;SDS011;9108;53.204;10.424;2023-08-21T06:58:24;8.77;;;1.98;;
17965;SDS011;9108;53.204;10.424;2023-08-21T07:00:52;9.48;;;2.00;;
17965;SDS011;9108;53.204;10.424;2023-08-21T07:03:20;6.47;;;1.80;;
17965;SDS011;9108;53.204;10.424;2023-08-21T07:05:53;9.75;;;1.90;;
17965;SDS011;9108;53.204;10.424;2023-08-21T07:08:21;6.03;;;1.70;;
17965;SDS011;9108;53.204;10.424;2023-08-21T07:10:49;8.80;;;2.08;;
17965;SDS011;9108;53.204;10.424;2023-08-21T07:13:16;9.07;;;1.88;;
17965;SDS011;9108;53.204;10.424;2023-08-21T07:15:43;9.52;;;1.67;;
17965;SDS011;9108;53.204;10.424;2023-08-21T07:18:10;8.13;;;1.90;;
17965;SDS011;9108;53.204;10.424;2023-08-21T07:20:37;7.80;;;2.00;;
17965;SDS011;9108;53.204;10.424;2023-08-21T07:23:04;9.10;;;1.80;;
17965;SDS011;9108;53.204;10.424;2023-08-21T07:25:33;8.45;;;1.63;;
17965;SDS011;9108;53.204;10.424;2023-08-21T07:28:00;10.50;;;2.00;;
17965;SDS011;9108;53.204;10.424;2023-08-21T07:30:27;11.17;;;1.90;;
17965;SDS011;9108;53.204;10.424;2023-08-21T07:32:55;9.63;;;2.00;;
17965;SDS011;9108;53.204;10.424;2023-08-21T07:35:22;7.05;;;1.67;;
17965;SDS011;9108;53.204;10.424;2023-08-21T07:37:49;9.70;;;1.92;;
17965;SDS011;9108;53.204;10.424;2023-08-21T07:40:16;8.18;;;1.70;;
17965;SDS011;9108;53.204;10.424;2023-08-21T07:42:44;6.00;;;1.65;;
17965;SDS011;9108;53.204;10.424;2023-08-21T07:45:12;11.88;;;2.13;;
17965;SDS011;9108;53.204;10.424;2023-08-21T07:47:39;10.88;;;2.00;;
17965;SDS011;9108;53.204;10.424;2023-08-21T07:50:06;8.82;;;2.00;;
17965;SDS011;9108;53.204;10.424;2023-08-21T07:52:34;10.00;;;2.30;;
17965;SDS011;9108;53.204;10.424;2023-08-21T07:55:01;10.05;;;1.95;;
17965;SDS011;9108;53.204;10.424;2023-08-21T07:57:29;8.23;;;1.90;;
17965;SDS011;9108;53.204;10.424;2023-08-21T07:59:57;8.35;;;1.80;;
17965;SDS011;9108;53.204;10.424;2023-08-21T08:02:25;11.30;;;2.15;;
17965;SDS011;9108;53.204;10.424;2023-08-21T08:04:52;10.05;;;2.10;;
17965;SDS011;9108;53.204;10.424;2023-08-21T08:07:19;10.00;;;2.00;;
17965;SDS011;9108;53.204;10.424;2023-08-21T08:09:46;9.70;;;2.20;;
17965;SDS011;9108;53.204;10.424;2023-08-21T08:12:13;11.00;;;2.10;;
17965;SDS011;9108;53.204;10.424;2023-08-21T08:14:40;9.80;;;1.90;;
17965;SDS011;9108;53.204;10.424;2023-08-21T08:17:09;11.05;;;2.17;;
17965;SDS011;9108;53.204;10.424;2023-08-21T08:19:36;10.65;;;2.20;;
17965;SDS011;9108;53.204;10.424;2023-08-21T08:22:03;9.77;;;2.28;;
17965;SDS011;9108;53.204;10.424;2023-08-21T08:24:30;10.60;;;2.30;;
17965;SDS011;9108;53.204;10.424;2023-08-21T08:26:57;9.32;;;1.90;;
17965;SDS011;9108;53.204;10.424;2023-08-21T08:29:24;10.95;;;2.33;;
17965;SDS011;9108;53.204;10.424;2023-08-21T08:31:52;9.83;;;1.80;;
17965;SDS011;9108;53.204;10.424;2023-08-21T08:34:20;8.50;;;1.80;;
17965;SDS011;9108;53.204;10.424;2023-08-21T08:36:47;8.80;;;1.90;;
17965;SDS011;9108;53.204;10.424;2023-08-21T08:39:14;9.32;;;1.90;;
17965;SDS011;9108;53.204;10.424;2023-08-21T08:41:43;10.05;;;1.80;;
17965;SDS011;9108;53.204;10.424;2023-08-21T08:44:10;7.60;;;1.80;;
17965;SDS011;9108;53.204;10.424;2023-08-21T08:46:39;9.65;;;1.98;;
17965;SDS011;9108;53.204;10.424;2023-08-21T08:49:06;8.75;;;1.67;;
17965;SDS011;9108;53.204;10.424;2023-08-21T08:51:35;6.88;;;1.65;;
17965;SDS011;9108;53.204;10.424;2023-08-21T08:54:04;6.93;;;1.55;;
17965;SDS011;9108;53.204;10.424;2023-08-21T08:56:34;7.53;;;1.80;;
17965;SDS011;9108;53.204;10.424;2023-08-21T08:59:02;9.70;;;1.90;;
17965;SDS011;9108;53.204;10.424;2023-08-21T09:01:29;8.32;;;1.73;;
17965;SDS011;9108;53.204;10.424;2023-08-21T09:03:56;7.55;;;1.45;;
17965;SDS011;9108;53.204;10.424;2023-08-21T09:06:23;7.82;;;1.77;;
17965;SDS011;9108;53.204;10.424;2023-08-21T09:08:54;6.45;;;1.60;;
17965;SDS011;9108;53.204;10.424;2023-08-21T09:11:21;7.13;;;1.60;;
17965;SDS011;9108;53.204;10.424;2023-08-21T09:13:49;8.57;;;1.88;;
17965;SDS011;9108;53.204;10.424;2023-08-21T09:16:17;6.70;;;1.65;;
17965;SDS011;9108;53.204;10.424;2023-08-21T09:18:47;6.50;;;1.92;;
17965;SDS011;9108;53.204;10.424;2023-08-21T09:21:19;7.97;;;1.70;;
17965;SDS011;9108;53.204;10.424;2023-08-21T09:23:46;6.07;;;1.48;;
17965;SDS011;9108;53.204;10.424;2023-08-21T09:26:19;8.48;;;1.60;;
17965;SDS011;9108;53.204;10.424;2023-08-21T09:28:46;7.85;;;1.70;;
17965;SDS011;9108;53.204;10.424;2023-08-21T09:31:14;9.50;;;1.80;;
17965;SDS011;9108;53.204;10.424;2023-08-21T09:33:42;7.07;;;1.55;;
17965;SDS011;9108;53.204;10.424;2023-08-21T09:36:09;7.25;;;1.50;;
17965;SDS011;9108;53.204;10.424;2023-08-21T09:38:38;6.80;;;1.40;;
17965;SDS011;9108;53.204;10.424;2023-08-21T09:41:05;6.30;;;1.40;;
17965;SDS011;9108;53.204;10.424;2023-08-21T09:43:35;7.93;;;1.38;;
17965;SDS011;9108;53.204;10.424;2023-08-21T09:46:07;7.43;;;1.55;;
17965;SDS011;9108;53.204;10.424;2023-08-21T09:48:34;11.53;;;2.73;;
17965;SDS011;9108;53.204;10.424;2023-08-21T09:51:02;6.28;;;1.40;;
17965;SDS011;9108;53.204;10.424;2023-08-21T09:53:30;4.18;;;1.30;;
17965;SDS011;9108;53.204;10.424;2023-08-21T09:55:57;5.10;;;1.30;;
17965;SDS011;9108;53.204;10.424;2023-08-21T09:58:28;5.30;;;1.30;;
17965;SDS011;9108;53.204;10.424;2023-08-21T10:00:57;7.43;;;1.43;;
17965;SDS011;9108;53.204;10.424;2023-08-21T10:03:25;7.18;;;1.50;;
17965;SDS011;9108;53.204;10.424;2023-08-21T10:05:53;7.18;;;1.40;;
17965;SDS011;9108;53.204;10.424;2023-08-21T10:08:24;7.68;;;1.50;;
17965;SDS011;9108;53.204;10.424;2023-08-21T10:10:51;4.75;;;1.25;;
17965;SDS011;9108;53.204;10.424;2023-08-21T10:13:18;6.60;;;1.58;;
17965;SDS011;9108;53.204;10.424;2023-08-21T10:15:46;6.00;;;1.48;;
17965;SDS011;9108;53.204;10.424;2023-08-21T10:18:22;5.45;;;1.40;;
17965;SDS011;9108;53.204;10.424;2023-08-21T10:20:49;5.90;;;1.00;;
17965;SDS011;9108;53.204;10.424;2023-08-21T10:23:27;4.57;;;1.10;;
17965;SDS011;9108;53.204;10.424;2023-08-21T10:25:54;4.75;;;1.30;;
17965;SDS011;9108;53.204;10.424;2023-08-21T10:28:21;6.80;;;1.20;;
17965;SDS011;9108;53.204;10.424;2023-08-21T10:30:49;3.45;;;1.02;;
17965;SDS011;9108;53.204;10.424;2023-08-21T10:33:16;5.03;;;1.10;;
17965;SDS011;9108;53.204;10.424;2023-08-21T10:35:46;3.70;;;1.08;;
17965;SDS011;9108;53.204;10.424;2023-08-21T10:38:14;4.43;;;1.10;;
17965;SDS011;9108;53.204;10.424;2023-08-21T10:43:36;6.85;;;1.23;;
17965;SDS011;9108;53.204;10.424;2023-08-21T10:46:04;4.70;;;1.10;;
17965;SDS011;9108;53.204;10.424;2023-08-21T10:48:31;5.38;;;1.10;;
17965;SDS011;9108;53.204;10.424;2023-08-21T10:51:00;3.90;;;1.10;;
17965;SDS011;9108;53.204;10.424;2023-08-21T10:53:28;4.15;;;1.20;;
17965;SDS011;9108;53.204;10.424;2023-08-21T10:55:55;4.50;;;1.10;;
17965;SDS011;9108;53.204;10.424;2023-08-21T10:58:22;3.90;;;1.02;;
17965;SDS011;9108;53.204;10.424;2023-08-21T11:00:55;5.18;;;1.13;;
17965;SDS011;9108;53.204;10.424;2023-08-21T11:03:23;4.78;;;1.30;;
17965;SDS011;9108;53.204;10.424;2023-08-21T11:06:01;4.20;;;1.20;;
17965;SDS011;9108;53.204;10.424;2023-08-21T11:08:28;5.57;;;1.10;;
17965;SDS011;9108;53.204;10.424;2023-08-21T11:10:56;4.97;;;1.00;;
17965;SDS011;9108;53.204;10.424;2023-08-21T11:13:23;3.73;;;1.20;;
17965;SDS011;9108;53.204;10.424;2023-08-21T11:15:57;6.20;;;1.20;;
17965;SDS011;9108;53.204;10.424;2023-08-21T11:18:29;4.03;;;1.13;;
17965;SDS011;9108;53.204;10.424;2023-08-21T11:21:04;5.22;;;1.33;;
17965;SDS011;9108;53.204;10.424;2023-08-21T11:23:32;5.03;;;1.13;;
17965;SDS011;9108;53.204;10.424;2023-08-21T11:25:59;5.95;;;1.30;;
17965;SDS011;9108;53.204;10.424;2023-08-21T11:28:28;3.78;;;1.10;;
17965;SDS011;9108;53.204;10.424;2023-08-21T11:30:55;5.60;;;1.10;;
17965;SDS011;9108;53.204;10.424;2023-08-21T11:33:23;5.95;;;1.17;;
17965;SDS011;9108;53.204;10.424;2023-08-21T11:35:50;4.38;;;1.10;;
17965;SDS011;9108;53.204;10.424;2023-08-21T11:38:20;2.88;;;1.15;;
17965;SDS011;9108;53.204;10.424;2023-08-21T11:40:51;4.28;;;1.15;;
17965;SDS011;9108;53.204;10.424;2023-08-21T11:43:18;4.07;;;1.15;;
17965;SDS011;9108;53.204;10.424;2023-08-21T11:45:45;2.85;;;1.10;;
17965;SDS011;9108;53.204;10.424;2023-08-21T11:48:12;4.90;;;1.17;;
17965;SDS011;9108;53.204;10.424;2023-08-21T11:50:39;3.40;;;1.00;;
17965;SDS011;9108;53.204;10.424;2023-08-21T11:53:07;3.72;;;1.15;;
17965;SDS011;9108;53.204;10.424;2023-08-21T11:55:37;3.85;;;1.25;;
17965;SDS011;9108;53.204;10.424;2023-08-21T11:58:05;4.22;;;1.15;;
17965;SDS011;9108;53.204;10.424;2023-08-21T12:00:33;3.43;;;1.20;;
17965;SDS011;9108;53.204;10.424;2023-08-21T12:03:00;5.10;;;1.20;;
17965;SDS011;9108;53.204;10.424;2023-08-21T12:05:31;3.90;;;1.10;;
17965;SDS011;9108;53.204;10.424;2023-08-21T12:07:58;4.53;;;1.10;;
17965;SDS011;9108;53.204;10.424;2023-08-21T12:10:25;4.55;;;1.13;;
17965;SDS011;9108;53.204;10.424;2023-08-21T12:12:54;3.58;;;1.13;;
17965;SDS011;9108;53.204;10.424;2023-08-21T12:15:22;4.10;;;1.10;;
17965;SDS011;9108;53.204;10.424;2023-08-21T12:17:49;6.13;;;1.60;;
17965;SDS011;9108;53.204;10.424;2023-08-21T12:20:16;4.75;;;1.30;;
17965;SDS011;9108;53.204;10.424;2023-08-21T12:22:43;4.55;;;1.30;;
17965;SDS011;9108;53.204;10.424;2023-08-21T12:25:10;3.55;;;1.17;;
17965;SDS011;9108;53.204;10.424;2023-08-21T12:27:38;5.53;;;1.23;;
17965;SDS011;9108;53.204;10.424;2023-08-21T12:30:07;3.30;;;1.00;;
17965;SDS011;9108;53.204;10.424;2023-08-21T12:32:34;4.03;;;1.17;;
17965;SDS011;9108;53.204;10.424;2023-08-21T12:35:01;4.50;;;1.10;;
17965;SDS011;9108;53.204;10.424;2023-08-21T12:37:29;5.50;;;1.20;;
17965;SDS011;9108;53.204;10.424;2023-08-21T12:39:56;2.63;;;1.00;;
17965;SDS011;9108;53.204;10.424;2023-08-21T12:42:23;3.50;;;1.10;;
17965;SDS011;9108;53.204;10.424;2023-08-21T12:44:51;5.63;;;1.17;;
17965;SDS011;9108;53.204;10.424;2023-08-21T12:47:19;3.75;;;1.10;;
17965;SDS011;9108;53.204;10.424;2023-08-21T12:49:46;2.87;;;1.00;;
17965;SDS011;9108;53.204;10.424;2023-08-21T12:52:13;2.70;;;0.90;;
17965;SDS011;9108;53.204;10.424;2023-08-21T12:54:40;4.20;;;1.13;;
17965;SDS011;9108;53.204;10.424;2023-08-21T12:57:08;3.85;;;1.00;;
17965;SDS011;9108;53.204;10.424;2023-08-21T12:59:36;3.53;;;0.90;;
17965;SDS011;9108;53.204;10.424;2023-08-21T13:02:03;4.22;;;1.05;;
17965;SDS011;9108;53.204;10.424;2023-08-21T13:04:32;3.60;;;1.05;;
17965;SDS011;9108;53.204;10.424;2023-08-21T13:06:59;3.03;;;1.00;;
17965;SDS011;9108;53.204;10.424;2023-08-21T13:09:26;4.40;;;1.08;;
17965;SDS011;9108;53.204;10.424;2023-08-21T13:11:54;4.97;;;1.20;;
17965;SDS011;9108;53.204;10.424;2023-08-21T13:14:21;3.67;;;0.93;;
17965;SDS011;9108;53.204;10.424;2023-08-21T13:16:48;3.55;;;1.13;;
17965;SDS011;9108;53.204;10.424;2023-08-21T13:19:15;2.85;;;0.98;;
17965;SDS011;9108;53.204;10.424;2023-08-21T13:21:44;4.05;;;1.00;;
17965;SDS011;9108;53.204;10.424;2023-08-21T13:24:11;3.38;;;1.00;;
17965;SDS011;9108;53.204;10.424;2023-08-21T13:26:38;3.80;;;1.10;;
17965;SDS011;9108;53.204;10.424;2023-08-21T13:29:05;2.78;;;1.10;;
17965;SDS011;9108;53.204;10.424;2023-08-21T13:31:33;3.97;;;1.10;;
17965;SDS011;9108;53.204;10.424;2023-08-21T13:34:00;3.63;;;1.10;;
17965;SDS011;9108;53.204;10.424;2023-08-21T13:36:28;3.42;;;1.15;;
17965;SDS011;9108;53.204;10.424;2023-08-21T13:38:57;3.08;;;1.00;;
17965;SDS011;9108;53.204;10.424;2023-08-21T13:41:24;3.72;;;1.20;;
17965;SDS011;9108;53.204;10.424;2023-08-21T13:43:51;5.30;;;1.10;;
17965;SDS011;9108;53.204;10.424;2023-08-21T13:46:19;2.88;;;1.00;;
17965;SDS011;9108;53.204;10.424;2023-08-21T13:48:46;3.88;;;1.15;;
17965;SDS011;9108;53.204;10.424;2023-08-21T13:51:13;2.83;;;1.10;;
17965;SDS011;9108;53.204;10.424;2023-08-21T13:53:40;3.03;;;1.00;;
17965;SDS011;9108;53.204;10.424;2023-08-21T13:56:09;4.15;;;1.20;;
17965;SDS011;9108;53.204;10.424;2023-08-21T13:58:36;3.58;;;1.17;;
17965;SDS011;9108;53.204;10.424;2023-08-21T14:01:03;4.28;;;1.15;;
17965;SDS011;9108;53.204;10.424;2023-08-21T14:03:31;3.30;;;1.20;;
17965;SDS011;9108;53.204;10.424;2023-08-21T14:05:58;3.13;;;1.20;;
17965;SDS011;9108;53.204;10.424;2023-08-21T14:08:26;3.70;;;1.25;;
17965;SDS011;9108;53.204;10.424;2023-08-21T14:10:53;3.78;;;1.02;;
17965;SDS011;9108;53.204;10.424;2023-08-21T14:13:21;3.05;;;1.10;;
17965;SDS011;9108;53.204;10.424;2023-08-21T14:15:48;4.85;;;1.23;;
17965;SDS011;9108;53.204;10.424;2023-08-21T14:18:15;3.72;;;1.30;;
17965;SDS011;9108;53.204;10.424;2023-08-21T14:20:43;3.92;;;1.10;;
17965;SDS011;9108;53.204;10.424;2023-08-21T14:23:10;4.93;;;1.20;;
17965;SDS011;9108;53.204;10.424;2023-08-21T14:25:37;3.73;;;1.27;;
17965;SDS011;9108;53.204;10.424;2023-08-21T14:28:04;5.00;;;1.42;;
17965;SDS011;9108;53.204;10.424;2023-08-21T14:30:33;2.63;;;1.08;;
17965;SDS011;9108;53.204;10.424;2023-08-21T14:33:00;4.45;;;1.17;;
17965;SDS011;9108;53.204;10.424;2023-08-21T14:35:27;4.05;;;1.10;;
17965;SDS011;9108;53.204;10.424;2023-08-21T14:37:54;3.37;;;1.20;;
17965;SDS011;9108;53.204;10.424;2023-08-21T14:40:21;4.53;;;1.20;;
17965;SDS011;9108;53.204;10.424;2023-08-21T14:42:48;3.85;;;1.20;;
17965;SDS011;9108;53.204;10.424;2023-08-21T14:45:16;2.90;;;1.10;;
17965;SDS011;9108;53.204;10.424;2023-08-21T14:47:44;3.30;;;1.30;;
17965;SDS011;9108;53.204;10.424;2023-08-21T14:50:11;5.28;;;1.20;;
17965;SDS011;9108;53.204;10.424;2023-08-21T14:52:38;4.43;;;1.40;;